Latest Weather Observations for Montague Island

IDN60801

Issued at 6:02 am EST Tuesday 31 May 2016 (issued every 30 minutes, with the page automatically refreshed every 10 minutes)

About weather observations | Map of weather stations | Latest weather observations for NSW | Other Formats
Station Details ID: 069017 Name: MONTAGUE ISLAND LIGHTHOUSE Lat: -36.25 Lon: 150.23 Height: 52.0 m
Data from the previous 72 hours. | See also: Recent months at Montague Island
Date/Time
EST
Temp
°C
App
Temp
°C
Dew
Point
Rel
Hum
%
Delta-T
°C
Wind Press
QNH
hPa
Press
MSL
hPa
Rain
since 9 am
mm
Dir
 
Spd
km/h
Gust
km/h
Spd
kts
Gust
kts
31/06:00am 12.4 8.5 10.8 90 0.8 SW 22 30 12 16 1029.0 1029.0 0.4
31/05:30am 12.5 9.0 10.9 90 0.8 SSW 20 26 11 14 1028.8 1028.8 0.4
31/05:00am 12.7 9.3 11.1 90 0.8 SW 20 26 11 14 1028.6 1028.6 0.4
31/04:30am 12.6 9.1 10.8 89 0.9 SSW 20 28 11 15 1028.5 1028.5 0.2
31/04:00am 12.9 8.9 10.6 86 1.2 SW 22 30 12 16 1028.4 1028.4 0.0
31/03:30am 12.7 8.7 10.6 87 1.1 SW 22 32 12 17 1028.3 1028.3 0.0
31/03:00am 13.1 9.4 10.3 83 1.4 SSW 20 30 11 16 1028.3 1028.3 0.0
31/02:30am 12.9 8.7 9.9 82 1.5 SW 22 28 12 15 1028.3 1028.3 0.0
31/02:00am 12.9 8.7 9.7 81 1.6 SW 22 32 12 17 1028.2 1028.2 0.0
31/01:30am 13.0 8.8 9.6 80 1.7 SW 22 32 12 17 1028.3 1028.3 0.0
31/01:00am 13.1 8.8 9.5 79 1.8 SW 22 32 12 17 1028.4 1028.4 0.0
31/12:30am 13.1 9.2 9.5 79 1.8 SW 20 30 11 16 1028.4 1028.4 0.0
31/12:00am 13.3 9.5 9.7 79 1.8 SW 20 26 11 14 1028.4 1028.4 0.0
 
Date/Time
EST
Temp
°C
App
Temp
°C
Dew
Point
Rel
Hum
%
Delta-T
°C
Wind Press
QNH
hPa
Press
MSL
hPa
Rain
since 9 am
mm
Dir
 
Spd
km/h
Gust
km/h
Spd
kts
Gust
kts
30/11:30pm 13.2 9.3 9.5 78 1.9 SSW 20 26 11 14 1028.3 1028.3 0.0
30/11:00pm 13.2 9.4 9.8 80 1.7 SW 20 26 11 14 1028.3 1028.3 0.0
30/10:30pm 13.2 9.5 10.0 81 1.7 SW 20 28 11 15 1028.2 1028.2 0.0
30/10:00pm 13.6 10.0 10.6 82 1.6 SW 20 30 11 16 1028.2 1028.2 0.0
30/09:30pm 14.1 10.5 10.5 79 1.9 S 20 26 11 14 1028.0 1028.0 0.0
30/09:00pm 14.1 10.5 10.7 80 1.8 SSW 20 24 11 13 1027.7 1027.7 0.0
30/08:30pm 14.3 10.7 10.7 79 1.9 S 20 26 11 14 1027.5 1027.5 0.0
30/08:00pm 14.9 10.6 10.9 77 2.1 SSE 24 32 13 17 1027.4 1027.4 0.0
30/07:30pm 14.6 11.0 10.6 77 2.1 S 20 30 11 16 1027.2 1027.2 0.0
30/07:00pm 14.8 10.8 10.4 75 2.3 SSE 22 35 12 19 1026.9 1026.9 0.0
30/06:30pm 14.9 10.5 10.3 74 2.4 SSE 24 33 13 18 1026.6 1026.6 0.0
30/06:00pm 14.8 10.7 10.0 73 2.5 SSE 22 35 12 19 1026.3 1026.3 0.0
30/05:30pm 14.8 10.7 10.0 73 2.5 SSE 22 33 12 18 1026.0 1026.0 0.0
30/05:00pm 14.8 11.1 10.0 73 2.5 S 20 28 11 15 1025.6 1025.6 0.0
30/04:30pm 15.0 10.1 9.8 71 2.7 SSE 26 35 14 19 1025.2 1025.2 0.0
30/04:00pm 15.0 10.6 8.9 67 3.1 SSE 22 32 12 17 1025.1 1025.1 0.0
30/03:30pm 15.1 10.6 8.6 65 3.3 SSE 22 32 12 17 1024.8 1024.8 0.0
30/03:00pm 15.4 11.2 8.4 63 3.5 S 20 28 11 15 1024.6 1024.6 0.0
30/02:30pm 15.6 11.5 8.6 63 3.6 S 20 24 11 13 1024.4 1024.4 0.0
30/02:00pm 15.8 11.7 8.5 62 3.7 S 20 24 11 13 1024.3 1024.3 0.0
30/01:30pm 15.9 11.7 8.2 60 3.9 S 20 26 11 14 1024.2 1024.2 0.0
30/01:00pm 16.2 12.1 7.9 58 4.2 SSW 19 24 10 13 1024.3 1024.3 0.0
30/12:30pm 15.9 11.4 7.1 56 4.4 SSW 20 32 11 17 1024.3 1024.3 0.0
30/12:00pm 15.8 11.5 7.8 59 4.0 SSW 20 30 11 16 1024.4 1024.4 0.0
30/11:30am 15.4 11.0 7.2 58 4.1 SSW 20 28 11 15 1024.7 1024.7 0.0
30/11:00am 14.9 10.3 6.5 57 4.1 SSW 20 32 11 17 1025.1 1025.1 0.0
30/10:30am 15.3 9.1 6.3 55 4.4 SW 28 41 15 22 1025.2 1025.2 0.0
30/10:00am 14.8 8.4 5.3 53 4.5 SW 28 37 15 20 1025.2 1025.2 0.0
30/09:30am 14.8 9.9 5.3 53 4.5 SW 20 32 11 17 1025.2 1025.2 0.0
30/09:00am 13.7 9.7 5.1 56 4.0 WSW 15 19 8 10 1024.9 1024.9 0.0
30/08:30am 12.9 8.1 4.8 58 3.7 W 19 22 10 12 1024.7 1024.7 0.0
30/08:00am 12.0 7.2 4.7 61 3.3 W 19 24 10 13 1024.3 1024.3 0.0
30/07:30am 11.1 6.6 4.1 62 3.1 W 17 22 9 12 1023.8 1023.8 0.0
30/07:00am 10.9 6.8 4.4 64 2.9 W 15 19 8 10 1023.5 1023.5 0.0
30/06:30am 10.8 7.0 3.8 62 3.1 W 13 19 7 10 1023.2 1023.1 0.0
30/06:00am 11.0 6.8 4.0 62 3.1 W 15 19 8 10 1022.7 1022.6 0.0
30/05:30am 11.0 6.9 4.5 64 2.9 WNW 15 20 8 11 1022.4 1022.3 0.0
30/05:00am 11.7 7.0 3.2 56 3.7 W 17 22 9 12 1021.9 1021.8 0.0
30/04:30am 11.6 6.6 3.4 57 3.6 W 19 24 10 13 1021.6 1021.5 0.0
30/04:00am 11.4 6.5 3.9 60 3.3 W 19 22 10 12 1021.5 1021.4 0.0
30/03:30am 11.4 6.5 4.2 61 3.2 W 19 24 10 13 1021.3 1021.2 0.0
30/03:00am 10.8 5.9 4.3 64 2.9 W 19 24 10 13 1021.2 1021.1 0.0
30/02:30am 10.9 6.5 4.6 65 2.8 W 17 20 9 11 1021.2 1021.1 0.0
30/02:00am 11.1 7.1 4.8 65 2.9 WNW 15 20 8 11 1021.2 1021.1 0.0
30/01:30am 11.3 7.2 4.5 63 3.1 WNW 15 19 8 10 1021.1 1021.0 0.0
30/01:00am 11.4 6.9 4.4 62 3.1 WNW 17 20 9 11 1020.8 1020.7 0.0
30/12:30am 12.5 6.7 4.2 57 3.8 WSW 24 32 13 17 1020.7 1020.6 0.0
30/12:00am 11.8 6.8 4.5 61 3.3 W 20 28 11 15 1020.8 1020.7 0.0
 
Date/Time
EST
Temp
°C
App
Temp
°C
Dew
Point
Rel
Hum
%
Delta-T
°C
Wind Press
QNH
hPa
Press
MSL
hPa
Rain
since 9 am
mm
Dir
 
Spd
km/h
Gust
km/h
Spd
kts
Gust
kts
29/11:30pm 12.5 7.6 4.0 56 3.8 W 19 22 10 12 1020.8 1020.7 0.0
29/11:00pm 13.1 5.5 2.6 49 4.6 WSW 32 39 17 21 1020.5 1020.4 0.0
29/10:30pm 13.3 6.2 3.4 51 4.4 SW 30 41 16 22 1020.4 1020.3 0.0
29/10:00pm 13.5 6.0 3.3 50 4.6 SW 32 43 17 23 1020.1 1020.0 0.0
29/09:30pm 13.7 6.5 3.2 49 4.7 SW 30 41 16 22 1019.8 1019.7 0.0
29/09:00pm 13.4 7.4 3.2 50 4.5 SW 24 33 13 18 1019.5 1019.4 0.0
29/08:30pm 13.7 7.3 3.2 49 4.7 SW 26 37 14 20 1019.1 1019.0 0.0
29/08:00pm 14.1 7.0 3.8 50 4.7 SW 30 46 16 25 1018.8 1018.7 0.0
29/07:30pm 14.5 6.8 3.3 47 5.1 SW 33 44 18 24 1018.5 1018.4 0.0
29/07:11pm 14.5 6.7 3.0 46 5.2 SSW 33 54 18 29 1018.2 1018.1 0.0
29/07:00pm 14.4 7.0 4.1 50 4.7 SSW 32 48 17 26 1018.0 1017.9 0.0
29/06:30pm 14.4 8.2 6.0 57 4.0 SSW 28 33 15 18 1017.8 1017.7 0.0
29/06:00pm 14.8 8.8 5.1 52 4.6 SSW 26 32 14 17 1017.4 1017.3 0.0
29/05:30pm 15.2 9.8 4.6 49 5.0 SSW 22 30 12 16 1017.2 1017.1 0.0
29/05:00pm 15.6 9.7 4.0 46 5.4 SSW 24 35 13 19 1016.7 1016.6 0.0
29/04:30pm 15.8 10.2 3.3 43 5.7 SSW 22 33 12 18 1016.2 1016.1 0.0
29/04:00pm 16.2 8.8 1.9 38 6.4 SW 30 43 16 23 1015.8 1015.7 0.0
29/03:30pm 16.5 11.2 3.2 41 6.1 SSW 20 32 11 17 1015.8 1015.7 0.0
29/03:00pm 16.9 11.2 2.9 39 6.4 SW 22 32 12 17 1015.6 1015.5 0.0
29/02:30pm 17.0 11.6 2.6 38 6.6 SW 20 28 11 15 1015.3 1015.2 0.0
29/02:00pm 16.5 11.4 4.2 44 5.8 SSW 20 32 11 17 1015.0 1014.9 0.0
29/01:30pm 16.8 10.9 3.8 42 6.1 SW 24 35 13 19 1014.8 1014.7 0.0
29/01:00pm 17.2 11.9 2.8 38 6.6 SW 20 28 11 15 1015.1 1015.0 0.0
29/12:30pm 16.8 11.2 3.5 41 6.2 SW 22 33 12 18 1015.2 1015.1 0.0
29/12:00pm 17.0 11.0 3.3 40 6.3 SW 24 32 13 17 1015.4 1015.3 0.0
29/11:30am 16.4 12.1 3.5 42 6.0 SW 15 24 8 13 1015.6 1015.5 0.0
29/11:00am 16.2 12.6 2.9 41 6.0 W 11 19 6 10 1015.8 1015.7 0.0
29/10:30am 15.6 11.3 3.4 44 5.6 W 15 22 8 12 1015.8 1015.7 0.0
29/10:00am 15.1 10.4 3.3 45 5.4 WNW 17 20 9 11 1015.6 1015.5 0.0
29/09:30am 14.4 9.4 3.8 49 4.8 WNW 19 30 10 16 1015.3 1015.2 0.0
29/09:00am 13.8 8.7 3.9 51 4.5 WNW 20 30 11 16 1015.1 1015.0 1.0
29/08:30am 13.6 8.4 3.7 51 4.5 WNW 20 32 11 17 1014.9 1014.8 1.0
29/08:00am 12.9 8.8 4.1 55 4.0 W 15 26 8 14 1014.6 1014.5 1.0
29/07:30am 12.7 7.5 3.6 54 4.1 W 20 30 11 16 1014.3 1014.2 1.0
29/07:00am 12.0 6.4 3.5 56 3.8 W 22 28 12 15 1013.9 1013.8 1.0
29/06:30am 11.9 7.0 3.9 58 3.6 W 19 24 10 13 1013.8 1013.7 1.0
29/06:00am 11.8 6.3 4.1 59 3.5 W 22 28 12 15 1013.7 1013.6 1.0
29/05:30am 12.1 7.1 4.6 60 3.4 W 20 26 11 14 1013.4 1013.3 1.0
29/05:00am 11.9 6.1 4.2 59 3.5 W 24 32 13 17 1013.1 1013.0 1.0
29/04:30am 12.1 6.5 3.6 56 3.8 W 22 30 12 16 1012.9 1012.9 1.0
29/04:00am 11.8 6.8 3.6 57 3.7 W 19 24 10 13 1012.6 1012.6 1.0
29/03:30am 11.9 6.9 3.4 56 3.8 W 19 26 10 14 1012.4 1012.4 1.0
29/03:00am 11.8 7.7 4.5 61 3.3 WNW 15 20 8 11 1012.3 1012.3 1.0
29/02:30am 11.8 7.1 3.3 56 3.8 W 17 22 9 12 1012.2 1012.2 1.0
29/02:00am 12.1 6.8 2.8 53 4.1 WSW 20 28 11 15 1012.1 1012.1 1.0
29/01:30am 12.3 5.5 3.0 53 4.1 WSW 28 37 15 20 1011.8 1011.8 1.0
29/01:00am 12.3 6.7 3.5 55 3.9 WSW 22 30 12 16 1011.6 1011.6 1.0
29/12:30am 12.2 7.1 3.9 57 3.7 W 20 28 11 15 1011.6 1011.6 1.0
29/12:00am 12.6 6.2 3.3 53 4.1 WSW 26 32 14 17 1011.3 1011.3 1.0
 
Date/Time
EST
Temp
°C
App
Temp
°C
Dew
Point
Rel
Hum
%
Delta-T
°C
Wind Press
QNH
hPa
Press
MSL
hPa
Rain
since 9 am
mm
Dir
 
Spd
km/h
Gust
km/h
Spd
kts
Gust
kts
28/11:30pm 12.5 6.8 4.7 59 3.6 SW 24 32 13 17 1011.3 1011.3 1.0
28/11:00pm 12.4 6.4 5.3 62 3.3 SW 26 30 14 16 1011.2 1011.2 1.0
28/10:30pm 12.6 7.5 6.0 64 3.1 SW 22 28 12 15 1011.0 1011.0 1.0
28/10:00pm 13.0 8.0 6.4 64 3.2 SW 22 30 12 16 1010.8 1010.8 1.0
28/09:30pm 13.0 8.0 6.6 65 3.1 SW 22 28 12 15 1010.8 1010.8 1.0
28/09:00pm 12.9 7.9 6.3 64 3.1 SW 22 32 12 17 1010.8 1010.8 1.0
28/08:30pm 12.9 7.9 6.3 64 3.1 WSW 22 30 12 16 1010.5 1010.5 1.0
28/08:00pm 12.8 7.9 7.0 68 2.8 WSW 22 28 12 15 1010.2 1010.2 1.0
28/07:30pm 13.2 7.7 7.6 69 2.7 SW 26 35 14 19 1009.8 1009.8 1.0
28/07:00pm 13.3 7.7 7.3 67 2.9 SW 26 35 14 19 1009.3 1009.3 1.0
28/06:30pm 13.2 7.3 7.6 69 2.7 SW 28 35 15 19 1008.8 1008.8 1.0
28/06:00pm 13.2 7.6 7.2 67 2.9 SW 26 37 14 20 1008.3 1008.3 1.0
28/05:30pm 13.2 7.7 7.4 68 2.8 SW 26 39 14 21 1007.7 1007.7 1.0
28/05:00pm 13.2 7.2 7.2 67 2.9 SW 28 37 15 20 1007.4 1007.3 1.0
28/04:30pm 13.2 5.9 7.0 66 3.0 SW 35 44 19 24 1006.9 1006.8 1.0
28/04:00pm 13.4 6.7 8.0 70 2.7 WSW 33 43 18 23 1006.6 1006.5 1.0
28/03:30pm 12.7 7.1 8.8 77 2.0 WSW 28 39 15 21 1006.2 1006.1 1.0
28/03:00pm 12.2 6.9 8.5 78 1.8 WSW 26 35 14 19 1005.9 1005.8 1.0
28/02:30pm 11.8 6.5 8.3 79 1.7 WSW 26 33 14 18 1005.7 1005.6 0.8
28/02:00pm 11.6 4.1 7.9 78 1.8 WSW 37 46 20 25 1005.6 1005.5 0.4
28/01:30pm 13.0 5.8 7.5 69 2.7 SW 35 48 19 26 1005.3 1005.2 0.0
28/01:00pm 13.4 6.2 5.8 60 3.6 SW 33 48 18 26 1005.2 1005.1 0.0
28/12:30pm 13.9 5.5 5.5 57 4.0 SW 39 52 21 28 1005.1 1005.0 0.0
28/12:00pm 14.8 7.3 6.1 56 4.2 SW 35 48 19 26 1004.8 1004.7 0.0
28/11:30am 14.9 8.6 5.7 54 4.4 SSW 28 43 15 23 1005.0 1004.9 0.0
28/11:00am 15.1 10.4 5.0 51 4.8 SSW 19 26 10 14 1005.6 1005.5 0.0
28/10:30am 15.2 9.3 3.7 46 5.3 SW 24 33 13 18 1005.8 1005.7 0.0
28/10:00am 15.0 8.9 2.9 44 5.5 SW 24 35 13 19 1005.8 1005.7 0.0
28/09:30am 13.4 8.1 1.7 45 5.1 WSW 19 28 10 15 1006.0 1005.9 0.0
28/09:00am 13.4 8.8 3.5 51 4.5 W 17 20 9 11 1005.9 1005.8 0.0
28/08:30am 12.7 8.1 3.9 55 4.0 W 17 22 9 12 1006.0 1005.9 0.0
28/08:00am 12.6 7.9 3.3 53 4.2 W 17 22 9 12 1006.0 1005.9 0.0
28/07:30am 11.8 6.8 4.5 61 3.3 W 20 24 11 13 1005.9 1005.8 0.0
28/07:00am 12.0 6.0 3.3 55 3.9 W 24 32 13 17 1005.9 1005.8 0.0
28/06:30am 11.8 6.1 2.8 54 3.9 W 22 30 12 16 1005.7 1005.6 0.0

Other Formats:

Comma delimited format used in spreadsheet applications
http://www.bom.gov.au/fwo/IDN60801/IDN60801.94939.axf

JavaScript Object Notation format (JSON) in row-major order
http://www.bom.gov.au/fwo/IDN60801/IDN60801.94939.json